createdAt,value
2018-01-11T00:00:33.665Z,7.7
2018-01-11T00:01:32.918Z,7.69
2018-01-11T00:02:33.011Z,7.68
2018-01-11T00:03:33.377Z,7.68
2018-01-11T00:04:33.786Z,7.66
2018-01-11T00:05:32.861Z,7.64
2018-01-11T00:06:33.164Z,7.64
2018-01-11T00:07:33.428Z,7.64
2018-01-11T00:08:32.899Z,7.65
2018-01-11T00:09:33.060Z,7.62
2018-01-11T00:10:33.505Z,7.59
2018-01-11T00:11:32.785Z,7.59
2018-01-11T00:12:32.952Z,7.57
2018-01-11T00:13:33.189Z,7.57
2018-01-11T00:14:32.274Z,7.57
2018-01-11T00:15:32.797Z,7.58
2018-01-11T00:16:32.940Z,7.57
2018-01-11T00:17:32.946Z,7.56
2018-01-11T00:18:33.008Z,7.56
2018-01-11T00:19:32.298Z,7.53
2018-01-11T00:20:32.351Z,7.55
2018-01-11T00:21:32.568Z,7.53
2018-01-11T00:22:32.676Z,7.54
2018-01-11T00:23:32.940Z,7.55
2018-01-11T00:24:33.304Z,7.56
2018-01-11T00:25:32.596Z,7.54
2018-01-11T00:26:32.933Z,7.56
2018-01-11T00:27:33.303Z,7.55
2018-01-11T00:28:32.576Z,7.52
2018-01-11T00:29:32.693Z,7.52
2018-01-11T00:30:33.130Z,7.53
2018-01-11T00:31:32.378Z,7.54
2018-01-11T00:32:32.765Z,7.56
2018-01-11T00:33:33.006Z,7.55
2018-01-11T00:34:32.354Z,7.53
2018-01-11T00:35:32.599Z,7.51
2018-01-11T00:36:32.825Z,7.52
2018-01-11T00:37:33.010Z,7.49
2018-01-11T00:38:32.536Z,7.49
2018-01-11T00:39:32.759Z,7.46
2018-01-11T00:40:32.850Z,7.44
2018-01-11T00:41:32.286Z,7.42
2018-01-11T00:42:32.606Z,7.37
2018-01-11T00:43:33.005Z,7.36
2018-01-11T00:44:32.585Z,7.33
2018-01-11T00:45:32.861Z,7.35
2018-01-11T00:46:33.122Z,7.37
2018-01-11T00:47:32.141Z,7.33
2018-01-11T00:48:32.426Z,7.32
2018-01-11T00:49:32.638Z,7.33
2018-01-11T00:50:32.728Z,7.35
2018-01-11T00:51:32.879Z,7.36
2018-01-11T00:52:32.280Z,7.33
2018-01-11T00:53:32.585Z,7.32
2018-01-11T00:54:32.991Z,7.31
2018-01-11T00:55:33.094Z,7.25
2018-01-11T00:56:32.453Z,7.25
2018-01-11T00:57:32.497Z,7.21
2018-01-11T00:58:32.762Z,7.2
2018-01-11T00:59:33.005Z,7.19
2018-01-11T01:00:33.240Z,7.2
2018-01-11T01:01:32.540Z,7.17
2018-01-11T01:02:32.751Z,7.17
2018-01-11T01:03:33.126Z,7.14
2018-01-11T01:04:32.376Z,7.11
2018-01-11T01:05:32.615Z,7.12
2018-01-11T01:06:32.986Z,7.08
2018-01-11T01:07:32.449Z,7.07
2018-01-11T01:08:32.767Z,7.07
2018-01-11T01:09:33.099Z,7.07
2018-01-11T01:10:32.275Z,7.09
2018-01-11T01:11:32.478Z,7.1
2018-01-11T01:12:32.947Z,7.08
2018-01-11T01:13:33.364Z,7.09
2018-01-11T01:14:33.028Z,7.08
2018-01-11T01:15:33.063Z,7.08
2018-01-11T01:16:33.530Z,7.05
2018-01-11T01:17:33.658Z,7.05
2018-01-11T01:18:32.908Z,7.07
2018-01-11T01:19:33.201Z,7.07
2018-01-11T01:20:33.551Z,7.11
2018-01-11T01:21:34.008Z,7.09
2018-01-11T01:22:33.300Z,7.13
2018-01-11T01:23:33.454Z,7.14
2018-01-11T01:24:33.916Z,7.14
2018-01-11T01:25:33.504Z,7.13
2018-01-11T01:26:33.944Z,7.15
2018-01-11T01:27:33.315Z,7.16
2018-01-11T01:28:33.644Z,7.14
2018-01-11T01:29:32.957Z,7.17
2018-01-11T01:30:33.117Z,7.17
2018-01-11T01:31:33.509Z,7.17
2018-01-11T01:32:33.952Z,7.18
2018-01-11T01:33:33.327Z,7.16
2018-01-11T01:36:33.854Z,7.16
2018-01-11T01:37:33.082Z,7.16
2018-01-11T01:38:33.214Z,7.14
2018-01-11T01:39:33.478Z,7.14
2018-01-11T01:40:33.754Z,7.16
2018-01-11T01:41:33.171Z,7.17
2018-01-11T01:42:33.510Z,7.18
2018-01-11T01:43:33.635Z,7.18
2018-01-11T01:44:32.938Z,7.16
2018-01-11T01:45:32.255Z,7.17
2018-01-11T01:46:32.753Z,7.14
2018-01-11T01:47:32.012Z,7.17
2018-01-11T01:48:32.341Z,7.16
2018-01-11T01:49:32.665Z,7.16
2018-01-11T01:50:32.759Z,7.18
2018-01-11T01:51:31.988Z,7.2
2018-01-11T01:52:32.379Z,7.21
2018-01-11T01:53:32.707Z,7.19
2018-01-11T01:54:31.945Z,7.2
2018-01-11T01:55:32.023Z,7.22
2018-01-11T01:56:32.150Z,7.2
2018-01-11T01:57:32.744Z,7.22
2018-01-11T01:58:32.068Z,7.21
2018-01-11T01:59:32.381Z,7.2
2018-01-11T02:00:32.484Z,7.19
2018-01-11T02:01:32.694Z,7.23
2018-01-11T02:02:31.904Z,7.21
2018-01-11T02:03:32.176Z,7.2
2018-01-11T02:04:32.335Z,7.22
2018-01-11T02:05:32.569Z,7.24
2018-01-11T02:06:32.882Z,7.22
2018-01-11T02:07:32.089Z,7.22
2018-01-11T02:08:32.284Z,7.25
2018-01-11T02:09:32.326Z,7.22
2018-01-11T02:10:32.587Z,7.22
2018-01-11T02:11:32.920Z,7.2
2018-01-11T02:12:32.129Z,7.18
2018-01-11T02:13:32.415Z,7.19
2018-01-11T02:14:32.427Z,7.19
2018-01-11T02:15:32.782Z,7.19
2018-01-11T02:16:33.198Z,7.16
2018-01-11T02:17:33.277Z,7.17
2018-01-11T02:18:32.464Z,7.13
2018-01-11T02:19:33.699Z,7.12
2018-01-11T02:20:32.727Z,7.13
2018-01-11T02:21:32.813Z,7.12
2018-01-11T02:22:33.046Z,7.11
2018-01-11T02:23:33.248Z,7.08
2018-01-11T02:24:33.577Z,7.09
2018-01-11T02:25:32.992Z,7.07
2018-01-11T02:26:33.217Z,7.08
2018-01-11T02:27:33.622Z,7.07
2018-01-11T02:29:37.086Z,7.06
2018-01-11T02:30:33.423Z,7.03
2018-01-11T02:31:32.679Z,7.02
2018-01-11T02:32:32.940Z,7.02
2018-01-11T02:33:33.227Z,7.01
2018-01-11T02:34:33.771Z,7.04
2018-01-11T02:35:33.074Z,7.05
2018-01-11T02:36:33.266Z,7.06
2018-01-11T02:37:33.486Z,7.08
2018-01-11T02:38:32.783Z,7.09
2018-01-11T02:39:33.132Z,7.12
2018-01-11T02:40:33.272Z,7.11
2018-01-11T02:41:33.585Z,7.11
2018-01-11T02:42:32.915Z,7.12
2018-01-11T02:43:33.107Z,7.12
2018-01-11T02:45:33.382Z,7.11
2018-01-11T02:46:32.708Z,7.11
2018-01-11T02:47:32.777Z,7.13
2018-01-11T02:48:33.026Z,7.14
2018-01-11T02:49:33.160Z,7.14
2018-01-11T02:50:32.512Z,7.13
2018-01-11T02:51:32.687Z,7.14
2018-01-11T02:52:32.841Z,7.14
2018-01-11T02:53:33.113Z,7.13
2018-01-11T02:54:32.271Z,7.14
2018-01-11T02:55:32.586Z,7.14
2018-01-11T02:56:32.817Z,7.13
2018-01-11T02:57:33.080Z,7.13
2018-01-11T02:58:32.342Z,7.1
2018-01-11T02:59:32.667Z,7.11
2018-01-11T03:00:33.067Z,7.09
2018-01-11T03:01:32.533Z,7.07
2018-01-11T03:02:32.687Z,7.06
2018-01-11T03:03:32.998Z,7.03
2018-01-11T03:04:32.226Z,7.02
2018-01-11T03:05:32.655Z,7.05
2018-01-11T03:06:32.979Z,7.05
2018-01-11T03:07:32.361Z,7.05
2018-01-11T03:08:32.695Z,7.03
2018-01-11T03:09:32.979Z,7.06
2018-01-11T03:10:33.324Z,7.06
2018-01-11T03:11:32.601Z,7.06
2018-01-11T03:12:33.105Z,7.05
2018-01-11T03:13:32.310Z,7.07
2018-01-11T03:14:32.799Z,7.06
2018-01-11T03:15:33.248Z,7.06
2018-01-11T03:16:32.743Z,7.05
2018-01-11T03:17:33.124Z,7.04
2018-01-11T03:18:33.445Z,7.02
2018-01-11T03:19:32.646Z,7.06
2018-01-11T03:20:33.098Z,7.07
2018-01-11T03:21:33.404Z,7.07
2018-01-11T03:22:32.878Z,7.08
2018-01-11T03:23:33.128Z,7.09
2018-01-11T03:24:33.384Z,7.1
2018-01-11T03:25:32.627Z,7.08
2018-01-11T03:26:33.135Z,7.08
2018-01-11T03:27:33.534Z,7.08
2018-01-11T03:28:32.770Z,7.08
2018-01-11T03:29:32.982Z,7.08
2018-01-11T03:30:33.350Z,7.07
2018-01-11T03:31:33.544Z,7.07
2018-01-11T03:32:32.858Z,7.08
2018-01-11T03:33:33.363Z,7.08
2018-01-11T03:34:32.986Z,7.07
2018-01-11T03:35:33.400Z,7.07
2018-01-11T03:36:32.689Z,7.07
2018-01-11T03:37:32.917Z,7.07
2018-01-11T03:38:33.044Z,7.06
2018-01-11T03:39:33.491Z,7.06
2018-01-11T03:40:32.862Z,7.05
2018-01-11T03:41:32.917Z,7.03
2018-01-11T03:42:33.346Z,7.04
2018-01-11T03:43:32.814Z,7.01
2018-01-11T03:44:33.238Z,6.99
2018-01-11T03:45:33.645Z,6.96
2018-01-11T03:46:33.132Z,6.95
2018-01-11T03:47:32.536Z,6.92
2018-01-11T03:48:32.985Z,6.89
2018-01-11T03:49:32.332Z,6.93
2018-01-11T03:50:32.658Z,6.91
2018-01-11T03:51:32.955Z,6.92
2018-01-11T03:52:32.231Z,6.89
2018-01-11T03:53:32.474Z,6.9
2018-01-11T03:54:33.186Z,6.89
2018-01-11T03:55:32.504Z,6.89
2018-01-11T03:56:32.998Z,6.88
2018-01-11T03:57:32.320Z,6.89
2018-01-11T03:58:32.606Z,6.9
2018-01-11T03:59:32.947Z,6.89
2018-01-11T04:00:32.430Z,6.88
2018-01-11T04:01:32.796Z,6.88
2018-01-11T04:02:32.152Z,6.87
2018-01-11T04:03:32.556Z,6.84
2018-01-11T04:04:32.881Z,6.85
2018-01-11T04:05:32.478Z,6.84
2018-01-11T04:06:32.711Z,6.86
2018-01-11T04:07:33.085Z,6.87
2018-01-11T04:08:32.163Z,6.85
2018-01-11T04:09:32.351Z,6.87
2018-01-11T04:10:32.434Z,6.85
2018-01-11T04:11:32.715Z,6.87
2018-01-11T04:12:31.984Z,6.86
2018-01-11T04:13:32.088Z,6.86
2018-01-11T04:14:32.416Z,6.86
2018-01-11T04:15:32.584Z,6.83
2018-01-11T04:16:31.963Z,6.83
2018-01-11T04:17:32.149Z,6.82
2018-01-11T04:18:32.542Z,6.83
2018-01-11T04:19:32.769Z,6.83
2018-01-11T04:20:32.752Z,6.84
2018-01-11T04:21:32.968Z,6.83
2018-01-11T04:22:33.183Z,6.85
2018-01-11T04:23:32.436Z,6.83
2018-01-11T04:24:32.789Z,6.82
2018-01-11T04:25:33.118Z,6.82
2018-01-11T04:26:32.351Z,6.8
2018-01-11T04:27:32.494Z,6.81
2018-01-11T04:28:32.752Z,6.79
2018-01-11T04:29:33.144Z,6.8
2018-01-11T04:30:32.296Z,6.77
2018-01-11T04:31:32.388Z,6.77
2018-01-11T04:32:32.547Z,6.76
2018-01-11T04:33:32.808Z,6.75
2018-01-11T04:34:33.167Z,6.73
2018-01-11T04:35:32.573Z,6.7
2018-01-11T04:36:32.742Z,6.7
2018-01-11T04:37:33.304Z,6.68
2018-01-11T04:38:32.629Z,6.68
2018-01-11T04:39:32.868Z,6.66
2018-01-11T04:40:33.161Z,6.65
2018-01-11T04:41:32.551Z,6.65
2018-01-11T04:42:32.915Z,6.64
2018-01-11T04:43:33.024Z,6.63
2018-01-11T04:44:32.320Z,6.61
2018-01-11T04:45:32.749Z,6.62
2018-01-11T04:46:33.126Z,6.6
2018-01-11T04:47:32.490Z,6.59
2018-01-11T04:48:32.660Z,6.59
2018-01-11T04:49:32.706Z,6.58
2018-01-11T04:50:32.967Z,6.58
2018-01-11T04:51:33.298Z,6.57
2018-01-11T04:52:33.580Z,6.57
2018-01-11T04:53:32.731Z,6.56
2018-01-11T04:54:32.906Z,6.57
2018-01-11T04:55:33.021Z,6.54
2018-01-11T04:56:33.214Z,6.55
2018-01-11T04:57:33.381Z,6.53
2018-01-11T04:58:32.807Z,6.53
2018-01-11T04:59:33.006Z,6.52
2018-01-11T05:00:33.093Z,6.52
2018-01-11T05:01:33.386Z,6.51
2018-01-11T05:02:32.686Z,6.47
2018-01-11T05:03:32.890Z,6.46
2018-01-11T05:04:33.619Z,6.46
2018-01-11T05:05:33.112Z,6.45
2018-01-11T05:06:33.204Z,6.43
2018-01-11T05:07:33.496Z,6.44
2018-01-11T05:08:32.729Z,6.42
2018-01-11T05:09:33.115Z,6.41
2018-01-11T05:10:33.290Z,6.38
2018-01-11T05:11:33.318Z,6.37
2018-01-11T05:12:33.767Z,6.37
2018-01-11T05:13:32.821Z,6.37
2018-01-11T05:14:32.878Z,6.35
2018-01-11T05:15:33.181Z,6.35
2018-01-11T05:16:33.226Z,6.35
2018-01-11T05:17:33.646Z,6.35
2018-01-11T05:18:32.917Z,6.37
2018-01-11T05:19:33.093Z,6.38
2018-01-11T05:20:33.425Z,6.4
2018-01-11T05:21:33.851Z,6.39
2018-01-11T05:22:33.110Z,6.4
2018-01-11T05:23:33.393Z,6.39
2018-01-11T05:24:32.441Z,6.39
2018-01-11T05:25:32.506Z,6.4
2018-01-11T05:26:32.805Z,6.4
2018-01-11T05:27:33.329Z,6.41
2018-01-11T05:28:33.340Z,6.42
2018-01-11T05:29:33.655Z,6.43
2018-01-11T05:30:33.119Z,6.45
2018-01-11T05:31:33.255Z,6.44
2018-01-11T05:32:33.409Z,6.46
2018-01-11T05:33:32.574Z,6.47
2018-01-11T05:34:32.705Z,6.49
2018-01-11T05:35:33.189Z,6.48
2018-01-11T05:36:33.585Z,6.49
2018-01-11T05:37:32.754Z,6.48
2018-01-11T05:38:33.291Z,6.48
2018-01-11T05:39:33.499Z,6.5
2018-01-11T05:40:32.614Z,6.48
2018-01-11T05:41:33.207Z,6.49
2018-01-11T05:42:34.007Z,6.47
2018-01-11T05:43:33.366Z,6.48
2018-01-11T05:44:33.805Z,6.46
2018-01-11T05:45:33.020Z,6.45
2018-01-11T05:46:33.902Z,6.42
2018-01-11T05:47:33.173Z,6.41
2018-01-11T05:48:33.358Z,6.4
2018-01-11T05:49:32.660Z,6.39
2018-01-11T05:50:32.813Z,6.37
2018-01-11T05:51:33.177Z,6.35
2018-01-11T05:52:32.672Z,6.35
2018-01-11T05:53:32.830Z,6.34
2018-01-11T05:54:33.147Z,6.33
2018-01-11T05:55:33.524Z,6.32
2018-01-11T05:56:33.034Z,6.32
2018-01-11T05:57:33.434Z,6.33
2018-01-11T05:58:32.742Z,6.35
2018-01-11T05:59:33.130Z,6.35
2018-01-11T06:00:33.248Z,6.37
2018-01-11T06:01:32.753Z,6.38
2018-01-11T06:02:33.102Z,6.39
2018-01-11T06:03:32.564Z,6.38
2018-01-11T06:04:32.874Z,6.36
2018-01-11T06:05:32.967Z,6.36
2018-01-11T06:06:33.290Z,6.32
2018-01-11T06:07:32.405Z,6.31
2018-01-11T06:08:32.696Z,6.32
2018-01-11T06:09:32.907Z,6.29
2018-01-11T06:10:33.059Z,6.28
2018-01-11T06:11:33.363Z,6.26
2018-01-11T06:12:32.420Z,6.23
2018-01-11T06:13:32.758Z,6.21
2018-01-11T06:14:32.980Z,6.23
2018-01-11T06:15:33.278Z,6.19
2018-01-11T06:16:33.466Z,6.2
2018-01-11T06:17:32.700Z,6.21
2018-01-11T06:18:32.903Z,6.21
2018-01-11T06:19:33.270Z,6.22
2018-01-11T06:20:32.526Z,6.21
2018-01-11T06:21:32.600Z,6.22
2018-01-11T06:22:32.779Z,6.2
2018-01-11T06:23:33.280Z,6.19
2018-01-11T06:24:32.814Z,6.18
2018-01-11T06:25:33.012Z,6.19
2018-01-11T06:26:32.204Z,6.19
2018-01-11T06:27:33.450Z,6.2
2018-01-11T06:28:33.176Z,6.19
2018-01-11T06:29:32.330Z,6.19
2018-01-11T06:30:32.537Z,6.22
2018-01-11T06:31:35.079Z,6.21
2018-01-11T06:32:32.244Z,6.2
2018-01-11T06:33:32.499Z,6.17
2018-01-11T06:34:32.771Z,6.19
2018-01-11T06:35:32.273Z,6.2
2018-01-11T06:36:32.580Z,6.2
2018-01-11T06:37:32.901Z,6.21
2018-01-11T06:38:32.212Z,6.2
2018-01-11T06:39:32.985Z,6.2
2018-01-11T06:40:32.313Z,6.21
2018-01-11T06:41:32.409Z,6.19
2018-01-11T06:42:32.824Z,6.2
2018-01-11T06:43:33.229Z,6.2
2018-01-11T06:44:32.517Z,6.2
2018-01-11T06:45:32.936Z,6.19
2018-01-11T06:46:32.237Z,6.2
2018-01-11T06:47:32.347Z,6.21
2018-01-11T06:48:32.581Z,6.19
2018-01-11T06:49:32.827Z,6.21
2018-01-11T06:50:33.309Z,6.23
2018-01-11T06:51:32.472Z,6.22
2018-01-11T06:52:32.602Z,6.26
2018-01-11T06:53:32.877Z,6.23
2018-01-11T06:54:33.181Z,6.24
2018-01-11T06:55:32.480Z,6.26
2018-01-11T06:56:32.615Z,6.25
2018-01-11T06:57:32.826Z,6.26
2018-01-11T06:58:32.920Z,6.26
2018-01-11T06:59:32.244Z,6.28
2018-01-11T07:00:32.527Z,6.27
2018-01-11T07:01:32.701Z,6.29
2018-01-11T07:02:33.044Z,6.26
2018-01-11T07:03:32.382Z,6.26
2018-01-11T07:04:32.697Z,6.27
2018-01-11T07:05:32.869Z,6.26
2018-01-11T07:06:33.056Z,6.26
2018-01-11T07:07:32.328Z,6.26
2018-01-11T07:08:32.447Z,6.25
2018-01-11T07:09:32.602Z,6.26
2018-01-11T07:10:32.940Z,6.27
2018-01-11T07:11:32.055Z,6.26
2018-01-11T07:12:32.210Z,6.23
2018-01-11T07:13:32.540Z,6.21
2018-01-11T07:14:32.838Z,6.23
2018-01-11T07:15:33.144Z,6.21
2018-01-11T07:16:32.633Z,6.25
2018-01-11T07:17:32.777Z,6.26
2018-01-11T07:18:32.361Z,6.26
2018-01-11T07:19:32.520Z,6.25
2018-01-11T07:20:32.768Z,6.26
2018-01-11T07:21:33.328Z,6.24
2018-01-11T07:22:32.804Z,6.22
2018-01-11T07:23:32.901Z,6.23
2018-01-11T07:24:32.126Z,6.24
2018-01-11T07:25:32.392Z,6.24
2018-01-11T07:26:32.699Z,6.2
2018-01-11T07:27:33.062Z,6.24
2018-01-11T07:28:32.482Z,6.24
2018-01-11T07:29:32.712Z,6.25
2018-01-11T07:30:32.986Z,6.24
2018-01-11T07:31:32.238Z,6.24
2018-01-11T07:32:32.670Z,6.23
2018-01-11T07:33:33.012Z,6.22
2018-01-11T07:34:32.417Z,6.23
2018-01-11T07:35:33.334Z,6.24
2018-01-11T07:36:32.375Z,6.23
2018-01-11T07:37:32.516Z,6.2
2018-01-11T07:38:32.817Z,6.19
2018-01-11T07:39:32.453Z,6.2
2018-01-11T07:40:32.618Z,6.2
2018-01-11T07:41:32.984Z,6.2
2018-01-11T07:42:32.304Z,6.21
2018-01-11T07:43:32.478Z,6.26
2018-01-11T07:44:32.757Z,6.25
2018-01-11T07:45:32.849Z,6.27
2018-01-11T07:46:32.969Z,6.26
2018-01-11T07:47:32.142Z,6.27
2018-01-11T07:48:32.390Z,6.25
2018-01-11T07:49:32.442Z,6.28
2018-01-11T07:50:32.767Z,6.3
2018-01-11T07:51:32.923Z,6.3
2018-01-11T07:52:32.242Z,6.29
2018-01-11T07:53:32.344Z,6.29
2018-01-11T07:54:32.721Z,6.31
2018-01-11T07:55:33.024Z,6.31
2018-01-11T07:56:32.314Z,6.32
2018-01-11T07:57:32.498Z,6.32
2018-01-11T07:58:32.708Z,6.32
2018-01-11T07:59:33.138Z,6.33
2018-01-11T08:00:32.386Z,6.34
2018-01-11T08:01:32.763Z,6.36
2018-01-11T08:02:33.208Z,6.33
2018-01-11T08:03:32.357Z,6.37
2018-01-11T08:04:32.561Z,6.38
2018-01-11T08:05:32.680Z,6.39
2018-01-11T08:06:32.759Z,6.39
2018-01-11T08:07:33.103Z,6.4
2018-01-11T08:08:32.511Z,6.43
2018-01-11T08:09:33.034Z,6.43
2018-01-11T08:10:32.354Z,6.43
2018-01-11T08:11:32.860Z,6.44
2018-01-11T08:12:33.242Z,6.44
2018-01-11T08:13:32.557Z,6.44
2018-01-11T08:14:33.041Z,6.44
2018-01-11T08:15:32.341Z,6.43
2018-01-11T08:16:32.635Z,6.43
2018-01-11T08:17:33.024Z,6.44
2018-01-11T08:18:32.241Z,6.46
2018-01-11T08:19:32.525Z,6.45
2018-01-11T08:20:32.727Z,6.44
2018-01-11T08:21:33.108Z,6.45
2018-01-11T08:22:32.479Z,6.45
2018-01-11T08:23:32.716Z,6.46
2018-01-11T08:24:33.056Z,6.44
2018-01-11T08:25:33.348Z,6.44
2018-01-11T08:26:32.642Z,6.43
2018-01-11T08:27:32.850Z,6.43
2018-01-11T08:28:33.028Z,6.45
2018-01-11T08:29:33.547Z,6.45
2018-01-11T08:30:32.973Z,6.46
2018-01-11T08:31:33.012Z,6.46
2018-01-11T08:32:33.193Z,6.49
2018-01-11T08:33:32.399Z,6.46
2018-01-11T08:34:32.705Z,6.49
2018-01-11T08:35:32.855Z,6.49
2018-01-11T08:36:33.042Z,6.5
2018-01-11T08:37:33.306Z,6.52
2018-01-11T08:38:33.557Z,6.52
2018-01-11T08:39:32.908Z,6.55
2018-01-11T08:40:33.244Z,6.55
2018-01-11T08:41:33.338Z,6.55
2018-01-11T08:42:32.509Z,6.53
2018-01-11T08:43:32.788Z,6.56
2018-01-11T08:44:33.045Z,6.57
2018-01-11T08:45:33.214Z,6.56
2018-01-11T08:46:33.426Z,6.56
2018-01-11T08:47:32.784Z,6.57
2018-01-11T08:48:33.048Z,6.57
2018-01-11T08:49:33.348Z,6.57
2018-01-11T08:50:32.665Z,6.6
2018-01-11T08:51:33.008Z,6.58
2018-01-11T08:52:33.331Z,6.62
2018-01-11T08:53:32.376Z,6.62
2018-01-11T08:54:32.732Z,6.61
2018-01-11T08:55:33.159Z,6.59
2018-01-11T08:56:32.360Z,6.63
2018-01-11T08:57:32.508Z,6.63
2018-01-11T08:58:33.039Z,6.63
2018-01-11T08:59:33.266Z,6.63
2018-01-11T09:00:32.252Z,6.64
2018-01-11T09:01:32.236Z,6.66
2018-01-11T09:02:32.371Z,6.64
2018-01-11T09:03:32.436Z,6.67
2018-01-11T09:04:32.433Z,6.66
2018-01-11T09:05:32.682Z,6.68
2018-01-11T09:06:33.184Z,6.69
2018-01-11T09:07:32.500Z,6.71
2018-01-11T09:08:33.018Z,6.73
2018-01-11T09:09:33.337Z,6.71
2018-01-11T09:10:32.672Z,6.74
2018-01-11T09:11:32.915Z,6.74
2018-01-11T09:12:33.172Z,6.74
2018-01-11T09:13:32.478Z,6.75
2018-01-11T09:14:32.718Z,6.74
2018-01-11T09:15:33.029Z,6.75
2018-01-11T09:16:33.367Z,6.76
2018-01-11T09:17:32.710Z,6.76
2018-01-11T09:18:32.895Z,6.76
2018-01-11T09:19:33.245Z,6.79
2018-01-11T09:20:32.464Z,6.79
2018-01-11T09:21:32.770Z,6.8
2018-01-11T09:22:33.007Z,6.81
2018-01-11T09:23:33.164Z,6.82
2018-01-11T09:24:32.253Z,6.84
2018-01-11T09:25:32.686Z,6.84
2018-01-11T09:26:32.962Z,6.88
2018-01-11T09:27:33.151Z,6.88
2018-01-11T09:28:32.538Z,6.89
2018-01-11T09:29:32.940Z,6.91
2018-01-11T09:30:33.543Z,6.9
2018-01-11T09:31:32.917Z,6.94
2018-01-11T09:32:33.025Z,6.95
2018-01-11T09:33:33.283Z,6.95
2018-01-11T09:34:32.617Z,6.96
2018-01-11T09:35:32.959Z,6.96
2018-01-11T09:36:33.255Z,6.97
2018-01-11T09:37:32.686Z,7
2018-01-11T09:38:32.909Z,7
2018-01-11T09:39:33.410Z,7
2018-01-11T09:40:32.738Z,7.02
2018-01-11T09:41:33.058Z,7.02
2018-01-11T09:42:32.415Z,7.05
2018-01-11T09:43:32.540Z,7.07
2018-01-11T09:44:32.651Z,7.08
2018-01-11T09:45:32.910Z,7.11
2018-01-11T09:46:32.918Z,7.13
2018-01-11T09:47:33.316Z,7.12
2018-01-11T09:48:32.632Z,7.16
2018-01-11T09:49:32.703Z,7.14
2018-01-11T09:50:32.961Z,7.17
2018-01-11T09:51:32.986Z,7.18
2018-01-11T09:52:33.252Z,7.19
2018-01-11T09:53:32.526Z,7.2
2018-01-11T09:54:32.821Z,7.2
2018-01-11T09:55:33.003Z,7.24
2018-01-11T09:56:33.244Z,7.25
2018-01-11T09:57:33.364Z,7.26
2018-01-11T09:58:33.356Z,7.25
2018-01-11T09:59:33.393Z,7.28
2018-01-11T10:00:33.707Z,7.31
2018-01-11T10:01:33.089Z,7.32
2018-01-11T10:02:33.324Z,7.32
2018-01-11T10:03:33.367Z,7.34
2018-01-11T10:04:33.552Z,7.36
2018-01-11T10:05:34.594Z,7.34
2018-01-11T10:06:33.609Z,7.37
2018-01-11T10:07:32.944Z,7.35
2018-01-11T10:08:34.555Z,7.38
2018-01-11T10:09:33.099Z,7.39
2018-01-11T10:10:33.175Z,7.39
2018-01-11T10:11:33.262Z,7.42
2018-01-11T10:12:33.632Z,7.42
2018-01-11T10:13:32.834Z,7.43
2018-01-11T10:14:33.121Z,7.43
2018-01-11T10:15:33.523Z,7.44
2018-01-11T10:16:33.873Z,7.44
2018-01-11T10:17:34.735Z,7.47
2018-01-11T10:18:33.147Z,7.45
2018-01-11T10:19:34.167Z,7.46
2018-01-11T10:20:33.570Z,7.46
2018-01-11T10:21:32.785Z,7.48
2018-01-11T10:22:33.761Z,7.49
2018-01-11T10:23:33.444Z,7.48
2018-01-11T10:24:34.032Z,7.51
2018-01-11T10:25:33.277Z,7.52
2018-01-11T10:26:34.418Z,7.52
2018-01-11T10:27:34.795Z,7.54
2018-01-11T10:28:33.147Z,7.56
2018-01-11T10:29:33.292Z,7.54
2018-01-11T10:30:34.233Z,7.57
2018-01-11T10:31:33.848Z,7.57
2018-01-11T10:32:33.373Z,7.58
2018-01-11T10:33:34.425Z,7.58
2018-01-11T10:34:33.641Z,7.59
2018-01-11T10:35:32.789Z,7.59
2018-01-11T10:36:37.309Z,7.62
2018-01-11T10:37:35.239Z,7.63
2018-01-11T10:38:33.386Z,7.63
2018-01-11T10:39:33.626Z,7.63
2018-01-11T10:40:32.683Z,7.64
2018-01-11T10:41:33.072Z,7.65
2018-01-11T10:42:33.267Z,7.68
2018-01-11T10:43:33.538Z,7.69
2018-01-11T10:44:32.706Z,7.69
2018-01-11T10:45:33.009Z,7.7
2018-01-11T10:46:33.264Z,7.71
2018-01-11T10:47:33.468Z,7.72
2018-01-11T10:48:33.896Z,7.74
2018-01-11T10:49:33.310Z,7.74
2018-01-11T10:50:33.486Z,7.76
2018-01-11T10:51:32.539Z,7.77
2018-01-11T10:52:32.733Z,7.77
2018-01-11T10:53:32.739Z,7.81
2018-01-11T10:54:33.138Z,7.81
2018-01-11T10:55:33.479Z,7.81
2018-01-11T10:56:32.726Z,7.82
2018-01-11T10:57:32.860Z,7.83
2018-01-11T10:58:33.214Z,7.83
2018-01-11T10:59:32.841Z,7.84
2018-01-11T11:00:33.040Z,7.88
2018-01-11T11:01:33.264Z,7.88
2018-01-11T11:02:32.439Z,7.9
2018-01-11T11:03:32.518Z,7.89
2018-01-11T11:04:32.864Z,7.91
2018-01-11T11:05:33.110Z,7.93
2018-01-11T11:06:33.247Z,7.94
2018-01-11T11:07:32.563Z,7.94
2018-01-11T11:08:32.704Z,7.95
2018-01-11T11:09:32.840Z,7.95
2018-01-11T11:10:33.138Z,7.96
2018-01-11T11:11:33.584Z,7.97
2018-01-11T11:12:33.017Z,8
2018-01-11T11:13:33.293Z,8
2018-01-11T11:14:32.510Z,8.01
2018-01-11T11:15:32.910Z,8.01
2018-01-11T11:16:33.395Z,8.02
2018-01-11T11:17:32.776Z,8.03
2018-01-11T11:18:32.882Z,8.02
2018-01-11T11:19:33.002Z,8.02
2018-01-11T11:20:33.311Z,8.03
2018-01-11T11:21:32.364Z,8.07
2018-01-11T11:22:32.719Z,8.08
2018-01-11T11:23:32.830Z,8.11
2018-01-11T11:24:33.241Z,8.12
2018-01-11T11:25:33.638Z,8.14
2018-01-11T11:26:33.042Z,8.14
2018-01-11T11:27:32.144Z,8.17
2018-01-11T11:28:32.597Z,8.19
2018-01-11T11:29:32.727Z,8.2
2018-01-11T11:30:32.030Z,8.25
2018-01-11T11:31:33.785Z,8.24
2018-01-11T11:32:33.244Z,8.25
2018-01-11T11:33:34.062Z,8.27
2018-01-11T11:34:32.570Z,8.28
2018-01-11T11:35:32.882Z,8.31
2018-01-11T11:36:31.961Z,8.32
2018-01-11T11:37:32.447Z,8.3
2018-01-11T11:38:32.660Z,8.27
2018-01-11T11:39:32.127Z,8.3
2018-01-11T11:40:32.440Z,8.27
2018-01-11T11:41:32.825Z,8.3
2018-01-11T11:42:32.238Z,8.3
2018-01-11T11:43:32.445Z,8.32
2018-01-11T11:44:32.820Z,8.32
2018-01-11T11:45:32.090Z,8.32
2018-01-11T11:46:32.429Z,8.31
2018-01-11T11:47:32.819Z,8.27
2018-01-11T11:48:32.044Z,8.29
2018-01-11T11:49:32.607Z,8.28
2018-01-11T11:50:31.934Z,8.3
2018-01-11T11:51:32.075Z,8.25
2018-01-11T11:52:32.461Z,8.25
2018-01-11T11:53:32.831Z,8.25
2018-01-11T11:54:32.250Z,8.25
2018-01-11T11:55:32.725Z,8.24
2018-01-11T11:56:32.038Z,8.23
2018-01-11T11:57:32.646Z,8.25
2018-01-11T11:58:32.977Z,8.22
2018-01-11T11:59:33.400Z,8.24
2018-01-11T12:00:32.904Z,8.24
2018-01-11T12:01:33.359Z,8.19
2018-01-11T12:02:32.636Z,8.22
2018-01-11T12:03:33.692Z,8.17
2018-01-11T12:04:32.979Z,8.18
2018-01-11T12:05:33.298Z,8.19
2018-01-11T12:06:32.433Z,8.14
2018-01-11T12:07:32.841Z,8.14
2018-01-11T12:08:33.171Z,8.17
2018-01-11T12:09:32.712Z,8.17
2018-01-11T12:10:32.962Z,8.15
2018-01-11T12:11:33.317Z,8.16
2018-01-11T12:12:32.872Z,8.11
2018-01-11T12:13:33.248Z,8.11
2018-01-11T12:14:32.506Z,8.12
2018-01-11T12:15:32.664Z,8.13
2018-01-11T12:16:32.941Z,8.15
2018-01-11T12:17:35.530Z,8.17
2018-01-11T12:18:32.736Z,8.18
2018-01-11T12:19:33.204Z,8.19
2018-01-11T12:20:34.619Z,8.18
2018-01-11T12:21:33.229Z,8.19
2018-01-11T12:22:35.809Z,8.2
2018-01-11T12:23:33.351Z,8.21
2018-01-11T12:24:32.799Z,8.25
2018-01-11T12:25:33.197Z,8.25
2018-01-11T12:26:32.531Z,8.24
2018-01-11T12:27:33.051Z,8.25
2018-01-11T12:28:34.079Z,8.24
2018-01-11T12:29:33.323Z,8.27
2018-01-11T12:30:47.285Z,8.32
2018-01-11T12:31:34.082Z,8.36
2018-01-11T12:32:34.440Z,8.37
2018-01-11T12:33:33.913Z,8.35
2018-01-11T12:34:33.301Z,8.36
2018-01-11T12:35:33.722Z,8.39
2018-01-11T12:36:32.998Z,8.42
2018-01-11T12:37:33.380Z,8.44
2018-01-11T12:38:55.510Z,8.43
2018-01-11T12:39:33.815Z,8.45
2018-01-11T12:40:33.183Z,8.48
2018-01-11T12:41:33.580Z,8.44
2018-01-11T12:42:33.044Z,8.43
2018-01-11T12:43:33.408Z,8.44
2018-01-11T12:44:33.851Z,8.43
2018-01-11T12:45:33.035Z,8.43
2018-01-11T12:46:33.316Z,8.45
2018-01-11T12:47:33.628Z,8.48
2018-01-11T12:48:33.108Z,8.49
2018-01-11T12:49:33.690Z,8.48
2018-01-11T12:50:33.156Z,8.51
2018-01-11T12:51:33.422Z,8.48
2018-01-11T12:52:33.846Z,8.5
2018-01-11T12:53:33.338Z,8.5
2018-01-11T12:54:33.885Z,8.51
2018-01-11T12:55:33.703Z,8.52
2018-01-11T12:56:33.125Z,8.52
2018-01-11T12:57:33.685Z,8.53
2018-01-11T12:58:33.094Z,8.52
2018-01-11T12:59:33.345Z,8.53
2018-01-11T13:00:32.654Z,8.55
2018-01-11T13:01:33.077Z,8.55
2018-01-11T13:02:33.288Z,8.56
2018-01-11T13:03:32.638Z,8.58
2018-01-11T13:04:33.155Z,8.57
2018-01-11T13:05:33.403Z,8.58
2018-01-11T13:06:32.889Z,8.59
2018-01-11T13:07:33.303Z,8.62
2018-01-11T13:08:33.264Z,8.63
2018-01-11T13:09:33.430Z,8.64
2018-01-11T13:10:32.791Z,8.63
2018-01-11T13:11:33.249Z,8.63
2018-01-11T13:14:59.484Z,8.69
2018-01-11T13:15:33.040Z,8.69
2018-01-11T13:16:33.731Z,8.69
2018-01-11T13:17:33.518Z,8.7
2018-01-11T13:18:34.156Z,8.73
2018-01-11T13:19:34.504Z,8.74
2018-01-11T13:20:34.000Z,8.77
2018-01-11T13:21:34.663Z,8.76
2018-01-11T13:22:34.349Z,8.78
2018-01-11T13:23:34.009Z,8.8
2018-01-11T13:24:34.436Z,8.79
2018-01-11T13:25:34.116Z,8.78
2018-01-11T13:26:34.167Z,8.79
2018-01-11T13:27:34.613Z,8.8